sensor_id;sensor_type;location;lat;lon;timestamp;P1;durP1;ratioP1;P2;durP2;ratioP2
7759;SDS011;3924;48.830;9.262;2024-03-06T00:00:21;9.07;;;4.97;;
7759;SDS011;3924;48.830;9.262;2024-03-06T00:02:49;7.77;;;5.33;;
7759;SDS011;3924;48.830;9.262;2024-03-06T00:05:16;13.03;;;5.70;;
7759;SDS011;3924;48.830;9.262;2024-03-06T00:07:42;6.57;;;5.60;;
7759;SDS011;3924;48.830;9.262;2024-03-06T00:10:09;5.37;;;4.50;;
7759;SDS011;3924;48.830;9.262;2024-03-06T00:12:35;6.87;;;4.43;;
7759;SDS011;3924;48.830;9.262;2024-03-06T00:15:02;7.00;;;5.27;;
7759;SDS011;3924;48.830;9.262;2024-03-06T00:17:29;8.77;;;4.70;;
7759;SDS011;3924;48.830;9.262;2024-03-06T00:19:56;7.03;;;5.13;;
7759;SDS011;3924;48.830;9.262;2024-03-06T00:22:22;9.53;;;5.13;;
7759;SDS011;3924;48.830;9.262;2024-03-06T00:24:50;15.07;;;6.73;;
7759;SDS011;3924;48.830;9.262;2024-03-06T00:27:17;10.57;;;4.87;;
7759;SDS011;3924;48.830;9.262;2024-03-06T00:29:44;7.30;;;4.23;;
7759;SDS011;3924;48.830;9.262;2024-03-06T00:32:11;6.57;;;4.70;;
7759;SDS011;3924;48.830;9.262;2024-03-06T00:34:38;6.43;;;4.83;;
7759;SDS011;3924;48.830;9.262;2024-03-06T00:37:04;5.90;;;4.13;;
7759;SDS011;3924;48.830;9.262;2024-03-06T00:39:31;5.27;;;3.80;;
7759;SDS011;3924;48.830;9.262;2024-03-06T00:41:57;8.23;;;4.60;;
7759;SDS011;3924;48.830;9.262;2024-03-06T00:44:23;5.17;;;4.67;;
7759;SDS011;3924;48.830;9.262;2024-03-06T00:46:50;5.40;;;4.43;;
7759;SDS011;3924;48.830;9.262;2024-03-06T00:49:16;5.83;;;4.70;;
7759;SDS011;3924;48.830;9.262;2024-03-06T00:51:43;7.13;;;4.77;;
7759;SDS011;3924;48.830;9.262;2024-03-06T00:54:15;4.63;;;4.03;;
7759;SDS011;3924;48.830;9.262;2024-03-06T00:56:42;7.17;;;4.20;;
7759;SDS011;3924;48.830;9.262;2024-03-06T00:59:08;4.40;;;3.53;;
7759;SDS011;3924;48.830;9.262;2024-03-06T01:01:36;4.27;;;3.63;;
7759;SDS011;3924;48.830;9.262;2024-03-06T01:04:02;7.73;;;4.20;;
7759;SDS011;3924;48.830;9.262;2024-03-06T01:06:29;4.20;;;3.77;;
7759;SDS011;3924;48.830;9.262;2024-03-06T01:08:56;6.00;;;3.73;;
7759;SDS011;3924;48.830;9.262;2024-03-06T01:11:23;3.63;;;2.97;;
7759;SDS011;3924;48.830;9.262;2024-03-06T01:13:50;4.70;;;3.67;;
7759;SDS011;3924;48.830;9.262;2024-03-06T01:16:16;4.87;;;3.80;;
7759;SDS011;3924;48.830;9.262;2024-03-06T01:18:43;4.20;;;3.40;;
7759;SDS011;3924;48.830;9.262;2024-03-06T01:21:10;3.43;;;3.07;;
7759;SDS011;3924;48.830;9.262;2024-03-06T01:23:36;3.33;;;3.00;;
7759;SDS011;3924;48.830;9.262;2024-03-06T01:26:03;7.80;;;3.40;;
7759;SDS011;3924;48.830;9.262;2024-03-06T01:28:29;3.47;;;2.90;;
7759;SDS011;3924;48.830;9.262;2024-03-06T01:30:56;5.90;;;3.87;;
7759;SDS011;3924;48.830;9.262;2024-03-06T01:33:25;4.83;;;3.47;;
7759;SDS011;3924;48.830;9.262;2024-03-06T01:35:51;4.83;;;2.70;;
7759;SDS011;3924;48.830;9.262;2024-03-06T01:38:18;3.00;;;2.80;;
7759;SDS011;3924;48.830;9.262;2024-03-06T01:40:44;3.87;;;2.90;;
7759;SDS011;3924;48.830;9.262;2024-03-06T01:43:22;6.57;;;4.27;;
7759;SDS011;3924;48.830;9.262;2024-03-06T01:45:50;6.20;;;4.30;;
7759;SDS011;3924;48.830;9.262;2024-03-06T01:48:17;5.67;;;5.17;;
7759;SDS011;3924;48.830;9.262;2024-03-06T01:50:46;6.50;;;5.17;;
7759;SDS011;3924;48.830;9.262;2024-03-06T01:53:14;7.77;;;6.10;;
7759;SDS011;3924;48.830;9.262;2024-03-06T01:55:43;6.50;;;5.73;;
7759;SDS011;3924;48.830;9.262;2024-03-06T01:58:10;6.93;;;6.00;;
7759;SDS011;3924;48.830;9.262;2024-03-06T02:00:37;9.83;;;6.17;;
7759;SDS011;3924;48.830;9.262;2024-03-06T02:03:04;6.30;;;5.70;;
7759;SDS011;3924;48.830;9.262;2024-03-06T02:05:31;8.57;;;6.17;;
7759;SDS011;3924;48.830;9.262;2024-03-06T02:07:58;7.40;;;5.27;;
7759;SDS011;3924;48.830;9.262;2024-03-06T02:10:28;6.97;;;5.53;;
7759;SDS011;3924;48.830;9.262;2024-03-06T02:12:55;7.23;;;5.73;;
7759;SDS011;3924;48.830;9.262;2024-03-06T02:15:22;7.60;;;5.90;;
7759;SDS011;3924;48.830;9.262;2024-03-06T02:17:48;7.07;;;5.90;;
7759;SDS011;3924;48.830;9.262;2024-03-06T02:20:15;7.73;;;5.30;;
7759;SDS011;3924;48.830;9.262;2024-03-06T02:22:42;9.20;;;5.60;;
7759;SDS011;3924;48.830;9.262;2024-03-06T02:25:09;10.83;;;6.13;;
7759;SDS011;3924;48.830;9.262;2024-03-06T02:27:37;7.57;;;5.30;;
7759;SDS011;3924;48.830;9.262;2024-03-06T02:30:04;8.57;;;5.33;;
7759;SDS011;3924;48.830;9.262;2024-03-06T02:32:32;6.63;;;5.50;;
7759;SDS011;3924;48.830;9.262;2024-03-06T02:35:00;6.07;;;5.47;;
7759;SDS011;3924;48.830;9.262;2024-03-06T02:37:28;8.97;;;6.23;;
7759;SDS011;3924;48.830;9.262;2024-03-06T02:39:54;8.47;;;5.90;;
7759;SDS011;3924;48.830;9.262;2024-03-06T02:42:21;6.70;;;5.50;;
7759;SDS011;3924;48.830;9.262;2024-03-06T02:44:47;6.83;;;5.77;;
7759;SDS011;3924;48.830;9.262;2024-03-06T02:47:14;8.43;;;5.37;;
7759;SDS011;3924;48.830;9.262;2024-03-06T02:49:40;8.93;;;5.40;;
7759;SDS011;3924;48.830;9.262;2024-03-06T02:52:07;5.43;;;4.87;;
7759;SDS011;3924;48.830;9.262;2024-03-06T02:54:33;8.57;;;5.23;;
7759;SDS011;3924;48.830;9.262;2024-03-06T02:57:00;7.13;;;5.17;;
7759;SDS011;3924;48.830;9.262;2024-03-06T02:59:27;6.23;;;5.03;;
7759;SDS011;3924;48.830;9.262;2024-03-06T03:01:54;5.33;;;4.53;;
7759;SDS011;3924;48.830;9.262;2024-03-06T03:04:21;5.30;;;4.47;;
7759;SDS011;3924;48.830;9.262;2024-03-06T03:06:47;8.87;;;4.30;;
7759;SDS011;3924;48.830;9.262;2024-03-06T03:09:14;6.37;;;4.60;;
7759;SDS011;3924;48.830;9.262;2024-03-06T03:11:42;7.30;;;3.93;;
7759;SDS011;3924;48.830;9.262;2024-03-06T03:14:10;5.33;;;4.00;;
7759;SDS011;3924;48.830;9.262;2024-03-06T03:16:36;6.97;;;3.50;;
7759;SDS011;3924;48.830;9.262;2024-03-06T03:19:03;4.47;;;3.40;;
7759;SDS011;3924;48.830;9.262;2024-03-06T03:21:29;3.77;;;3.10;;
7759;SDS011;3924;48.830;9.262;2024-03-06T03:23:56;5.87;;;3.33;;
7759;SDS011;3924;48.830;9.262;2024-03-06T03:26:23;5.07;;;3.33;;
7759;SDS011;3924;48.830;9.262;2024-03-06T03:28:49;3.10;;;2.80;;
7759;SDS011;3924;48.830;9.262;2024-03-06T03:31:16;4.43;;;3.27;;
7759;SDS011;3924;48.830;9.262;2024-03-06T03:33:42;4.33;;;3.00;;
7759;SDS011;3924;48.830;9.262;2024-03-06T03:36:09;5.53;;;3.00;;
7759;SDS011;3924;48.830;9.262;2024-03-06T03:38:36;5.23;;;2.80;;
7759;SDS011;3924;48.830;9.262;2024-03-06T03:41:10;3.33;;;2.80;;
7759;SDS011;3924;48.830;9.262;2024-03-06T03:43:42;4.50;;;3.03;;
7759;SDS011;3924;48.830;9.262;2024-03-06T03:46:09;3.60;;;2.93;;
7759;SDS011;3924;48.830;9.262;2024-03-06T03:48:36;3.53;;;2.60;;
7759;SDS011;3924;48.830;9.262;2024-03-06T03:51:04;3.33;;;3.03;;
7759;SDS011;3924;48.830;9.262;2024-03-06T03:53:33;4.03;;;2.90;;
7759;SDS011;3924;48.830;9.262;2024-03-06T03:55:59;3.70;;;2.80;;
7759;SDS011;3924;48.830;9.262;2024-03-06T03:58:26;4.80;;;3.00;;
7759;SDS011;3924;48.830;9.262;2024-03-06T04:00:53;2.97;;;2.67;;
7759;SDS011;3924;48.830;9.262;2024-03-06T04:03:21;3.27;;;2.60;;
7759;SDS011;3924;48.830;9.262;2024-03-06T04:05:48;5.10;;;2.97;;
7759;SDS011;3924;48.830;9.262;2024-03-06T04:08:15;3.07;;;2.87;;
7759;SDS011;3924;48.830;9.262;2024-03-06T04:10:42;3.10;;;2.73;;
7759;SDS011;3924;48.830;9.262;2024-03-06T04:13:11;3.63;;;2.80;;
7759;SDS011;3924;48.830;9.262;2024-03-06T04:15:38;4.90;;;3.37;;
7759;SDS011;3924;48.830;9.262;2024-03-06T04:18:05;3.30;;;3.00;;
7759;SDS011;3924;48.830;9.262;2024-03-06T04:20:32;4.17;;;3.17;;
7759;SDS011;3924;48.830;9.262;2024-03-06T04:22:58;3.50;;;3.20;;
7759;SDS011;3924;48.830;9.262;2024-03-06T04:25:25;5.30;;;3.73;;
7759;SDS011;3924;48.830;9.262;2024-03-06T04:27:51;3.53;;;3.23;;
7759;SDS011;3924;48.830;9.262;2024-03-06T04:30:18;4.60;;;3.30;;
7759;SDS011;3924;48.830;9.262;2024-03-06T04:32:45;4.43;;;3.93;;
7759;SDS011;3924;48.830;9.262;2024-03-06T04:35:11;4.83;;;2.73;;
7759;SDS011;3924;48.830;9.262;2024-03-06T04:37:38;3.20;;;2.90;;
7759;SDS011;3924;48.830;9.262;2024-03-06T04:40:05;2.87;;;2.67;;
7759;SDS011;3924;48.830;9.262;2024-03-06T04:42:36;3.43;;;3.00;;
7759;SDS011;3924;48.830;9.262;2024-03-06T04:45:04;4.93;;;2.83;;
7759;SDS011;3924;48.830;9.262;2024-03-06T04:47:37;2.70;;;2.50;;
7759;SDS011;3924;48.830;9.262;2024-03-06T04:50:07;4.80;;;3.10;;
7759;SDS011;3924;48.830;9.262;2024-03-06T04:52:35;3.60;;;2.70;;
7759;SDS011;3924;48.830;9.262;2024-03-06T04:55:03;3.37;;;2.90;;
7759;SDS011;3924;48.830;9.262;2024-03-06T04:57:30;3.77;;;2.70;;
7759;SDS011;3924;48.830;9.262;2024-03-06T04:59:56;3.33;;;3.07;;
7759;SDS011;3924;48.830;9.262;2024-03-06T05:02:24;3.23;;;2.87;;
7759;SDS011;3924;48.830;9.262;2024-03-06T05:04:53;2.77;;;2.37;;
7759;SDS011;3924;48.830;9.262;2024-03-06T05:07:37;2.60;;;2.37;;
7759;SDS011;3924;48.830;9.262;2024-03-06T05:10:22;3.00;;;2.80;;
7759;SDS011;3924;48.830;9.262;2024-03-06T05:13:06;2.60;;;2.40;;
7759;SDS011;3924;48.830;9.262;2024-03-06T05:15:49;3.20;;;2.53;;
7759;SDS011;3924;48.830;9.262;2024-03-06T05:18:34;4.00;;;2.50;;
7759;SDS011;3924;48.830;9.262;2024-03-06T05:21:18;3.43;;;2.90;;
7759;SDS011;3924;48.830;9.262;2024-03-06T05:24:03;4.40;;;2.70;;
7759;SDS011;3924;48.830;9.262;2024-03-06T05:26:47;3.10;;;2.80;;
7759;SDS011;3924;48.830;9.262;2024-03-06T05:29:30;4.43;;;3.10;;
7759;SDS011;3924;48.830;9.262;2024-03-06T05:32:14;2.93;;;2.63;;
7759;SDS011;3924;48.830;9.262;2024-03-06T05:34:58;3.33;;;2.53;;
7759;SDS011;3924;48.830;9.262;2024-03-06T05:37:42;6.43;;;3.30;;
7759;SDS011;3924;48.830;9.262;2024-03-06T05:40:27;2.93;;;2.70;;
7759;SDS011;3924;48.830;9.262;2024-03-06T05:43:10;4.07;;;2.67;;
7759;SDS011;3924;48.830;9.262;2024-03-06T05:45:54;6.43;;;2.93;;
7759;SDS011;3924;48.830;9.262;2024-03-06T05:48:38;2.77;;;2.57;;
7759;SDS011;3924;48.830;9.262;2024-03-06T05:51:22;5.20;;;2.80;;
7759;SDS011;3924;48.830;9.262;2024-03-06T05:54:06;5.77;;;2.97;;
7759;SDS011;3924;48.830;9.262;2024-03-06T05:56:52;3.07;;;2.87;;
7759;SDS011;3924;48.830;9.262;2024-03-06T05:59:37;3.13;;;2.83;;
7759;SDS011;3924;48.830;9.262;2024-03-06T06:02:06;4.90;;;3.00;;
7759;SDS011;3924;48.830;9.262;2024-03-06T06:04:32;3.77;;;3.23;;
7759;SDS011;3924;48.830;9.262;2024-03-06T06:07:06;3.13;;;2.80;;
7759;SDS011;3924;48.830;9.262;2024-03-06T06:09:32;3.40;;;3.10;;
7759;SDS011;3924;48.830;9.262;2024-03-06T06:11:59;3.77;;;3.20;;
7759;SDS011;3924;48.830;9.262;2024-03-06T06:14:25;4.70;;;3.10;;
7759;SDS011;3924;48.830;9.262;2024-03-06T06:16:58;3.40;;;3.10;;
7759;SDS011;3924;48.830;9.262;2024-03-06T06:19:25;5.53;;;3.30;;
7759;SDS011;3924;48.830;9.262;2024-03-06T06:21:52;6.07;;;3.37;;
7759;SDS011;3924;48.830;9.262;2024-03-06T06:24:20;3.30;;;2.77;;
7759;SDS011;3924;48.830;9.262;2024-03-06T06:26:47;3.97;;;2.97;;
7759;SDS011;3924;48.830;9.262;2024-03-06T06:29:13;4.70;;;3.80;;
7759;SDS011;3924;48.830;9.262;2024-03-06T06:31:40;8.87;;;3.07;;
7759;SDS011;3924;48.830;9.262;2024-03-06T06:34:07;2.93;;;2.63;;
7759;SDS011;3924;48.830;9.262;2024-03-06T06:36:33;2.73;;;2.50;;
7759;SDS011;3924;48.830;9.262;2024-03-06T06:39:00;3.77;;;2.93;;
7759;SDS011;3924;48.830;9.262;2024-03-06T06:41:31;3.80;;;3.07;;
7759;SDS011;3924;48.830;9.262;2024-03-06T06:43:57;3.40;;;3.10;;
7759;SDS011;3924;48.830;9.262;2024-03-06T06:46:24;3.40;;;3.00;;
7759;SDS011;3924;48.830;9.262;2024-03-06T06:48:50;4.37;;;2.83;;
7759;SDS011;3924;48.830;9.262;2024-03-06T06:51:17;4.67;;;2.80;;
7759;SDS011;3924;48.830;9.262;2024-03-06T06:53:43;5.13;;;3.07;;
7759;SDS011;3924;48.830;9.262;2024-03-06T06:56:10;4.70;;;3.23;;
7759;SDS011;3924;48.830;9.262;2024-03-06T06:58:37;3.73;;;2.97;;
7759;SDS011;3924;48.830;9.262;2024-03-06T07:01:04;4.13;;;3.17;;
7759;SDS011;3924;48.830;9.262;2024-03-06T07:03:30;4.33;;;2.93;;
7759;SDS011;3924;48.830;9.262;2024-03-06T07:05:57;5.13;;;3.47;;
7759;SDS011;3924;48.830;9.262;2024-03-06T07:08:23;6.40;;;3.17;;
7759;SDS011;3924;48.830;9.262;2024-03-06T07:10:50;5.30;;;2.90;;
7759;SDS011;3924;48.830;9.262;2024-03-06T07:13:19;2.67;;;2.47;;
7759;SDS011;3924;48.830;9.262;2024-03-06T07:15:46;4.00;;;3.20;;
7759;SDS011;3924;48.830;9.262;2024-03-06T07:18:12;2.80;;;2.60;;
7759;SDS011;3924;48.830;9.262;2024-03-06T07:20:39;4.70;;;2.93;;
7759;SDS011;3924;48.830;9.262;2024-03-06T07:23:07;3.90;;;2.73;;
7759;SDS011;3924;48.830;9.262;2024-03-06T07:25:34;5.13;;;3.23;;
7759;SDS011;3924;48.830;9.262;2024-03-06T07:28:00;6.77;;;3.90;;
7759;SDS011;3924;48.830;9.262;2024-03-06T07:30:27;14.33;;;7.57;;
7759;SDS011;3924;48.830;9.262;2024-03-06T07:32:55;6.40;;;3.73;;
7759;SDS011;3924;48.830;9.262;2024-03-06T07:35:23;4.87;;;3.63;;
7759;SDS011;3924;48.830;9.262;2024-03-06T07:37:50;10.80;;;3.53;;
7759;SDS011;3924;48.830;9.262;2024-03-06T07:40:16;4.17;;;3.77;;
7759;SDS011;3924;48.830;9.262;2024-03-06T07:42:43;3.57;;;2.77;;
7759;SDS011;3924;48.830;9.262;2024-03-06T07:45:10;10.17;;;4.03;;
7759;SDS011;3924;48.830;9.262;2024-03-06T07:47:37;2.97;;;2.63;;
7759;SDS011;3924;48.830;9.262;2024-03-06T07:50:04;3.70;;;3.40;;
7759;SDS011;3924;48.830;9.262;2024-03-06T07:52:32;3.13;;;2.83;;
7759;SDS011;3924;48.830;9.262;2024-03-06T07:54:59;4.50;;;3.57;;
7759;SDS011;3924;48.830;9.262;2024-03-06T07:57:25;4.63;;;3.30;;
7759;SDS011;3924;48.830;9.262;2024-03-06T07:59:52;3.27;;;2.57;;
7759;SDS011;3924;48.830;9.262;2024-03-06T08:02:20;3.43;;;3.03;;
7759;SDS011;3924;48.830;9.262;2024-03-06T08:04:48;4.50;;;3.20;;
7759;SDS011;3924;48.830;9.262;2024-03-06T08:07:14;3.10;;;2.90;;
7759;SDS011;3924;48.830;9.262;2024-03-06T08:09:41;6.87;;;3.60;;
7759;SDS011;3924;48.830;9.262;2024-03-06T08:12:09;6.03;;;3.33;;
7759;SDS011;3924;48.830;9.262;2024-03-06T08:14:35;5.00;;;2.90;;
7759;SDS011;3924;48.830;9.262;2024-03-06T08:17:03;5.50;;;4.30;;
7759;SDS011;3924;48.830;9.262;2024-03-06T08:19:29;6.90;;;3.43;;
7759;SDS011;3924;48.830;9.262;2024-03-06T08:21:56;4.33;;;3.00;;
7759;SDS011;3924;48.830;9.262;2024-03-06T08:24:22;3.77;;;3.40;;
7759;SDS011;3924;48.830;9.262;2024-03-06T08:26:49;4.07;;;3.70;;
7759;SDS011;3924;48.830;9.262;2024-03-06T08:29:16;7.43;;;3.73;;
7759;SDS011;3924;48.830;9.262;2024-03-06T08:31:42;3.93;;;3.20;;
7759;SDS011;3924;48.830;9.262;2024-03-06T08:34:09;5.00;;;3.57;;
7759;SDS011;3924;48.830;9.262;2024-03-06T08:36:35;5.70;;;3.70;;
7759;SDS011;3924;48.830;9.262;2024-03-06T08:39:03;6.53;;;3.77;;
7759;SDS011;3924;48.830;9.262;2024-03-06T08:41:29;3.87;;;3.40;;
7759;SDS011;3924;48.830;9.262;2024-03-06T08:43:56;5.30;;;3.83;;
7759;SDS011;3924;48.830;9.262;2024-03-06T08:46:22;5.73;;;3.60;;
7759;SDS011;3924;48.830;9.262;2024-03-06T08:48:50;4.20;;;3.80;;
7759;SDS011;3924;48.830;9.262;2024-03-06T08:51:17;12.97;;;6.67;;
7759;SDS011;3924;48.830;9.262;2024-03-06T08:53:43;5.47;;;3.90;;
7759;SDS011;3924;48.830;9.262;2024-03-06T08:56:10;3.23;;;2.93;;
7759;SDS011;3924;48.830;9.262;2024-03-06T08:58:37;6.47;;;4.10;;
7759;SDS011;3924;48.830;9.262;2024-03-06T09:01:03;4.03;;;2.67;;
7759;SDS011;3924;48.830;9.262;2024-03-06T09:03:30;5.30;;;3.40;;
7759;SDS011;3924;48.830;9.262;2024-03-06T09:05:57;4.57;;;4.03;;
7759;SDS011;3924;48.830;9.262;2024-03-06T09:08:26;5.40;;;3.70;;
7759;SDS011;3924;48.830;9.262;2024-03-06T09:10:52;5.30;;;3.57;;
7759;SDS011;3924;48.830;9.262;2024-03-06T09:13:19;5.17;;;3.90;;
7759;SDS011;3924;48.830;9.262;2024-03-06T09:15:45;4.33;;;3.93;;
7759;SDS011;3924;48.830;9.262;2024-03-06T09:18:12;5.60;;;4.07;;
7759;SDS011;3924;48.830;9.262;2024-03-06T09:20:38;4.50;;;4.10;;
7759;SDS011;3924;48.830;9.262;2024-03-06T09:23:05;4.93;;;3.57;;
7759;SDS011;3924;48.830;9.262;2024-03-06T09:25:32;11.37;;;6.37;;
7759;SDS011;3924;48.830;9.262;2024-03-06T09:27:59;17.33;;;9.60;;
7759;SDS011;3924;48.830;9.262;2024-03-06T09:30:26;5.83;;;3.77;;
7759;SDS011;3924;48.830;9.262;2024-03-06T09:32:54;5.57;;;4.40;;
7759;SDS011;3924;48.830;9.262;2024-03-06T09:35:21;5.33;;;3.73;;
7759;SDS011;3924;48.830;9.262;2024-03-06T09:37:48;8.73;;;4.27;;
7759;SDS011;3924;48.830;9.262;2024-03-06T09:40:21;4.37;;;3.93;;
7759;SDS011;3924;48.830;9.262;2024-03-06T09:42:49;5.67;;;3.83;;
7759;SDS011;3924;48.830;9.262;2024-03-06T09:45:17;5.93;;;4.00;;
7759;SDS011;3924;48.830;9.262;2024-03-06T09:47:43;3.37;;;3.07;;
7759;SDS011;3924;48.830;9.262;2024-03-06T09:50:13;2.20;;;1.73;;
7759;SDS011;3924;48.830;9.262;2024-03-06T09:52:46;5.33;;;4.20;;
7759;SDS011;3924;48.830;9.262;2024-03-06T09:55:14;6.07;;;5.37;;
7759;SDS011;3924;48.830;9.262;2024-03-06T09:57:41;4.67;;;4.27;;
7759;SDS011;3924;48.830;9.262;2024-03-06T10:00:08;5.80;;;5.00;;
7759;SDS011;3924;48.830;9.262;2024-03-06T10:02:39;5.43;;;4.53;;
7759;SDS011;3924;48.830;9.262;2024-03-06T10:05:22;6.80;;;4.27;;
7759;SDS011;3924;48.830;9.262;2024-03-06T10:07:50;6.03;;;4.93;;
7759;SDS011;3924;48.830;9.262;2024-03-06T10:10:18;7.00;;;3.87;;
7759;SDS011;3924;48.830;9.262;2024-03-06T10:12:46;6.33;;;5.07;;
7759;SDS011;3924;48.830;9.262;2024-03-06T10:15:14;7.53;;;5.00;;
7759;SDS011;3924;48.830;9.262;2024-03-06T10:17:41;7.43;;;5.97;;
7759;SDS011;3924;48.830;9.262;2024-03-06T10:22:49;14.70;;;8.97;;
7759;SDS011;3924;48.830;9.262;2024-03-06T10:25:23;8.00;;;5.97;;
7759;SDS011;3924;48.830;9.262;2024-03-06T10:28:09;8.03;;;6.20;;
7759;SDS011;3924;48.830;9.262;2024-03-06T10:30:40;8.17;;;7.03;;
7759;SDS011;3924;48.830;9.262;2024-03-06T10:33:12;6.83;;;6.13;;
7759;SDS011;3924;48.830;9.262;2024-03-06T10:35:40;13.33;;;6.57;;
7759;SDS011;3924;48.830;9.262;2024-03-06T10:38:08;11.83;;;6.03;;
7759;SDS011;3924;48.830;9.262;2024-03-06T10:40:37;7.03;;;6.43;;
7759;SDS011;3924;48.830;9.262;2024-03-06T10:43:05;5.87;;;5.30;;
7759;SDS011;3924;48.830;9.262;2024-03-06T10:45:39;7.60;;;6.57;;
7759;SDS011;3924;48.830;9.262;2024-03-06T10:48:18;10.80;;;6.80;;
7759;SDS011;3924;48.830;9.262;2024-03-06T10:50:47;13.03;;;7.20;;
7759;SDS011;3924;48.830;9.262;2024-03-06T10:53:16;12.57;;;7.50;;
7759;SDS011;3924;48.830;9.262;2024-03-06T10:55:49;11.50;;;8.40;;
7759;SDS011;3924;48.830;9.262;2024-03-06T10:58:16;10.50;;;7.17;;
7759;SDS011;3924;48.830;9.262;2024-03-06T11:00:45;11.70;;;8.43;;
7759;SDS011;3924;48.830;9.262;2024-03-06T11:03:14;11.27;;;8.17;;
7759;SDS011;3924;48.830;9.262;2024-03-06T11:05:42;15.37;;;9.50;;
7759;SDS011;3924;48.830;9.262;2024-03-06T11:08:13;12.93;;;7.30;;
7759;SDS011;3924;48.830;9.262;2024-03-06T11:10:41;8.67;;;6.63;;
7759;SDS011;3924;48.830;9.262;2024-03-06T11:13:22;6.70;;;5.93;;
7759;SDS011;3924;48.830;9.262;2024-03-06T11:15:57;12.63;;;8.10;;
7759;SDS011;3924;48.830;9.262;2024-03-06T11:18:40;11.00;;;8.03;;
7759;SDS011;3924;48.830;9.262;2024-03-06T11:23:38;10.93;;;9.10;;
7759;SDS011;3924;48.830;9.262;2024-03-06T11:26:38;8.07;;;7.23;;
7759;SDS011;3924;48.830;9.262;2024-03-06T11:29:09;9.77;;;7.97;;
7759;SDS011;3924;48.830;9.262;2024-03-06T11:31:36;12.17;;;8.53;;
7759;SDS011;3924;48.830;9.262;2024-03-06T11:34:03;10.47;;;8.87;;
7759;SDS011;3924;48.830;9.262;2024-03-06T11:36:31;14.80;;;9.73;;
7759;SDS011;3924;48.830;9.262;2024-03-06T11:41:46;8.50;;;6.97;;
7759;SDS011;3924;48.830;9.262;2024-03-06T11:44:20;9.33;;;7.83;;
7759;SDS011;3924;48.830;9.262;2024-03-06T11:46:50;9.27;;;6.97;;
7759;SDS011;3924;48.830;9.262;2024-03-06T11:49:24;30.73;;;16.07;;
7759;SDS011;3924;48.830;9.262;2024-03-06T11:51:52;61.77;;;24.73;;
7759;SDS011;3924;48.830;9.262;2024-03-06T11:54:20;16.33;;;10.17;;
7759;SDS011;3924;48.830;9.262;2024-03-06T11:56:50;15.17;;;10.63;;
7759;SDS011;3924;48.830;9.262;2024-03-06T11:59:23;11.57;;;9.80;;
7759;SDS011;3924;48.830;9.262;2024-03-06T12:01:52;11.50;;;9.10;;
7759;SDS011;3924;48.830;9.262;2024-03-06T12:04:22;12.30;;;8.80;;
7759;SDS011;3924;48.830;9.262;2024-03-06T12:06:50;10.90;;;7.60;;
7759;SDS011;3924;48.830;9.262;2024-03-06T12:09:17;11.57;;;9.53;;
7759;SDS011;3924;48.830;9.262;2024-03-06T12:11:43;11.87;;;9.97;;
7759;SDS011;3924;48.830;9.262;2024-03-06T12:14:18;11.50;;;8.87;;
7759;SDS011;3924;48.830;9.262;2024-03-06T12:17:03;13.07;;;9.70;;
7759;SDS011;3924;48.830;9.262;2024-03-06T12:19:34;12.50;;;9.50;;
7759;SDS011;3924;48.830;9.262;2024-03-06T12:22:02;11.00;;;8.50;;
7759;SDS011;3924;48.830;9.262;2024-03-06T12:24:33;17.90;;;9.10;;
7759;SDS011;3924;48.830;9.262;2024-03-06T12:27:00;11.77;;;8.90;;
7759;SDS011;3924;48.830;9.262;2024-03-06T12:29:28;11.70;;;8.03;;
7759;SDS011;3924;48.830;9.262;2024-03-06T12:31:57;11.23;;;8.87;;
7759;SDS011;3924;48.830;9.262;2024-03-06T12:34:24;12.47;;;8.43;;
7759;SDS011;3924;48.830;9.262;2024-03-06T12:36:51;9.77;;;7.33;;
7759;SDS011;3924;48.830;9.262;2024-03-06T12:39:17;12.10;;;8.47;;
7759;SDS011;3924;48.830;9.262;2024-03-06T12:41:47;12.40;;;8.53;;
7759;SDS011;3924;48.830;9.262;2024-03-06T12:44:14;12.03;;;9.00;;
7759;SDS011;3924;48.830;9.262;2024-03-06T12:46:41;13.57;;;9.00;;
7759;SDS011;3924;48.830;9.262;2024-03-06T12:49:08;11.93;;;8.53;;
7759;SDS011;3924;48.830;9.262;2024-03-06T12:51:34;16.90;;;10.70;;
7759;SDS011;3924;48.830;9.262;2024-03-06T12:54:01;11.03;;;8.47;;
7759;SDS011;3924;48.830;9.262;2024-03-06T12:56:27;12.37;;;9.67;;
7759;SDS011;3924;48.830;9.262;2024-03-06T12:58:54;19.20;;;12.27;;
7759;SDS011;3924;48.830;9.262;2024-03-06T13:01:20;13.43;;;10.17;;
7759;SDS011;3924;48.830;9.262;2024-03-06T13:03:47;13.83;;;10.03;;
7759;SDS011;3924;48.830;9.262;2024-03-06T13:06:13;10.90;;;8.67;;
7759;SDS011;3924;48.830;9.262;2024-03-06T13:08:40;14.57;;;9.70;;
7759;SDS011;3924;48.830;9.262;2024-03-06T13:11:07;13.57;;;9.33;;
7759;SDS011;3924;48.830;9.262;2024-03-06T13:13:36;14.73;;;10.07;;
7759;SDS011;3924;48.830;9.262;2024-03-06T13:16:02;17.20;;;11.03;;
7759;SDS011;3924;48.830;9.262;2024-03-06T13:18:33;15.73;;;10.77;;
7759;SDS011;3924;48.830;9.262;2024-03-06T13:20:59;15.90;;;12.27;;
7759;SDS011;3924;48.830;9.262;2024-03-06T13:23:27;15.63;;;9.83;;
7759;SDS011;3924;48.830;9.262;2024-03-06T13:25:53;14.83;;;10.73;;
7759;SDS011;3924;48.830;9.262;2024-03-06T13:28:20;13.57;;;10.70;;
7759;SDS011;3924;48.830;9.262;2024-03-06T13:30:47;17.00;;;11.87;;
7759;SDS011;3924;48.830;9.262;2024-03-06T13:33:13;19.83;;;13.73;;
7759;SDS011;3924;48.830;9.262;2024-03-06T13:35:40;18.80;;;14.17;;
7759;SDS011;3924;48.830;9.262;2024-03-06T13:38:07;18.00;;;11.90;;
7759;SDS011;3924;48.830;9.262;2024-03-06T13:40:34;18.97;;;13.17;;
7759;SDS011;3924;48.830;9.262;2024-03-06T13:43:00;14.43;;;11.47;;
7759;SDS011;3924;48.830;9.262;2024-03-06T13:45:27;14.50;;;10.60;;
7759;SDS011;3924;48.830;9.262;2024-03-06T13:47:54;16.67;;;12.50;;
7759;SDS011;3924;48.830;9.262;2024-03-06T13:50:21;19.27;;;13.00;;
7759;SDS011;3924;48.830;9.262;2024-03-06T13:52:50;15.30;;;12.70;;
7759;SDS011;3924;48.830;9.262;2024-03-06T13:55:16;15.07;;;11.67;;
7759;SDS011;3924;48.830;9.262;2024-03-06T13:57:43;14.47;;;12.03;;
7759;SDS011;3924;48.830;9.262;2024-03-06T14:00:10;13.00;;;9.93;;
7759;SDS011;3924;48.830;9.262;2024-03-06T14:02:44;17.97;;;12.93;;
7759;SDS011;3924;48.830;9.262;2024-03-06T14:05:12;16.40;;;13.37;;
7759;SDS011;3924;48.830;9.262;2024-03-06T14:07:41;19.03;;;13.93;;
7759;SDS011;3924;48.830;9.262;2024-03-06T14:10:08;13.20;;;10.07;;
7759;SDS011;3924;48.830;9.262;2024-03-06T14:12:37;18.37;;;13.10;;
7759;SDS011;3924;48.830;9.262;2024-03-06T14:15:05;16.80;;;13.97;;
7759;SDS011;3924;48.830;9.262;2024-03-06T14:17:35;18.70;;;14.13;;
7759;SDS011;3924;48.830;9.262;2024-03-06T14:20:01;18.60;;;13.70;;
7759;SDS011;3924;48.830;9.262;2024-03-06T14:22:28;15.03;;;11.47;;
7759;SDS011;3924;48.830;9.262;2024-03-06T14:24:55;14.63;;;10.37;;
7759;SDS011;3924;48.830;9.262;2024-03-06T14:27:22;13.43;;;11.03;;
7759;SDS011;3924;48.830;9.262;2024-03-06T14:29:48;17.07;;;13.63;;
7759;SDS011;3924;48.830;9.262;2024-03-06T14:32:16;16.27;;;12.83;;
7759;SDS011;3924;48.830;9.262;2024-03-06T14:34:45;13.87;;;11.27;;
7759;SDS011;3924;48.830;9.262;2024-03-06T14:37:12;15.00;;;11.07;;
7759;SDS011;3924;48.830;9.262;2024-03-06T14:39:38;17.30;;;13.50;;
7759;SDS011;3924;48.830;9.262;2024-03-06T14:42:06;14.90;;;10.70;;
7759;SDS011;3924;48.830;9.262;2024-03-06T14:44:33;14.87;;;10.47;;
7759;SDS011;3924;48.830;9.262;2024-03-06T14:46:59;16.37;;;12.80;;
7759;SDS011;3924;48.830;9.262;2024-03-06T14:49:26;12.20;;;9.20;;
7759;SDS011;3924;48.830;9.262;2024-03-06T14:51:52;15.80;;;13.20;;
7759;SDS011;3924;48.830;9.262;2024-03-06T14:54:19;13.47;;;9.93;;
7759;SDS011;3924;48.830;9.262;2024-03-06T14:56:46;15.70;;;11.23;;
7759;SDS011;3924;48.830;9.262;2024-03-06T14:59:12;14.20;;;11.57;;
7759;SDS011;3924;48.830;9.262;2024-03-06T15:01:39;13.07;;;10.63;;
7759;SDS011;3924;48.830;9.262;2024-03-06T15:04:06;13.47;;;9.70;;
7759;SDS011;3924;48.830;9.262;2024-03-06T15:06:32;16.13;;;11.93;;
7759;SDS011;3924;48.830;9.262;2024-03-06T15:08:59;13.37;;;11.33;;
7759;SDS011;3924;48.830;9.262;2024-03-06T15:11:25;17.03;;;12.20;;
7759;SDS011;3924;48.830;9.262;2024-03-06T15:13:56;19.07;;;11.87;;
7759;SDS011;3924;48.830;9.262;2024-03-06T15:16:23;16.00;;;10.90;;
7759;SDS011;3924;48.830;9.262;2024-03-06T15:18:50;13.97;;;11.07;;
7759;SDS011;3924;48.830;9.262;2024-03-06T15:21:25;15.10;;;11.80;;
7759;SDS011;3924;48.830;9.262;2024-03-06T15:23:51;18.00;;;13.13;;